createdAt,value
2018-03-22T00:04:34.917Z,31.20
2018-03-22T00:14:57.059Z,31.00
2018-03-22T00:25:10.789Z,30.90
2018-03-22T00:35:31.127Z,30.80
2018-03-22T00:45:48.659Z,31.80
2018-03-22T00:56:00.597Z,31.40
2018-03-22T01:06:10.284Z,30.50
2018-03-22T01:16:20.816Z,30.40
2018-03-22T01:26:32.342Z,30.30
2018-03-22T01:36:53.785Z,30.00
2018-03-22T01:47:03.802Z,30.70
2018-03-22T01:57:15.613Z,31.10
2018-03-22T02:07:29.622Z,29.80
2018-03-22T02:17:46.347Z,29.70
2018-03-22T02:27:56.643Z,30.60
2018-03-22T02:38:11.359Z,28.90
2018-03-22T02:48:21.539Z,29.10
2018-03-22T02:58:33.900Z,29.10
2018-03-22T03:08:43.164Z,31.00
2018-03-22T03:18:58.991Z,30.60
2018-03-22T03:29:12.245Z,30.90
2018-03-22T03:39:21.511Z,30.90
2018-03-22T03:49:37.161Z,28.30
2018-03-22T03:59:46.392Z,30.30
2018-03-22T04:09:58.481Z,30.00
2018-03-22T04:20:15.289Z,30.60
2018-03-22T04:30:25.134Z,30.60
2018-03-22T04:40:35.525Z,30.60
2018-03-22T04:50:46.397Z,30.40
2018-03-22T05:01:03.330Z,29.90
2018-03-22T05:11:13.818Z,30.00
2018-03-22T05:21:26.222Z,29.50
2018-03-22T05:41:53.055Z,28.30
2018-03-22T05:52:04.021Z,28.40
2018-03-22T06:02:22.011Z,28.40
2018-03-22T06:12:36.922Z,28.40
2018-03-22T06:22:52.339Z,27.70
2018-03-22T06:33:04.513Z,27.90
2018-03-22T06:43:13.971Z,27.60
2018-03-22T06:53:24.566Z,27.60
2018-03-22T07:03:37.243Z,27.30
2018-03-22T07:13:46.711Z,26.40
2018-03-22T07:24:10.121Z,26.20
2018-03-22T07:34:23.152Z,26.30
2018-03-22T07:44:41.449Z,26.40
2018-03-22T07:54:55.802Z,26.50
2018-03-22T08:05:15.699Z,27.00
2018-03-22T08:15:26.896Z,27.10
2018-03-22T08:25:48.587Z,27.10
2018-03-22T08:36:05.589Z,27.20
2018-03-22T08:46:16.646Z,27.00
2018-03-22T08:56:30.361Z,27.60
2018-03-22T09:06:40.265Z,26.90
2018-03-22T09:16:55.134Z,25.80
2018-03-22T09:27:12.040Z,25.40
2018-03-22T09:37:26.038Z,24.80
2018-03-22T09:47:40.207Z,24.30
2018-03-22T09:57:51.899Z,23.80
2018-03-22T10:08:03.579Z,24.70
2018-03-22T10:18:17.649Z,26.20
2018-03-22T10:28:31.882Z,27.10
2018-03-22T10:38:43.252Z,27.70
2018-03-22T10:48:57.057Z,28.80
2018-03-22T10:59:14.077Z,29.00
2018-03-22T11:09:28.276Z,29.00
2018-03-22T11:19:38.286Z,29.30
2018-03-22T11:29:53.510Z,29.60
2018-03-22T11:50:23.724Z,33.80
2018-03-22T12:00:34.631Z,35.40
2018-03-22T12:10:52.179Z,38.50
2018-03-22T12:21:01.893Z,37.30
2018-03-22T12:31:19.992Z,40.30
2018-03-22T12:41:33.463Z,40.30
2018-03-22T12:51:47.171Z,41.30
2018-03-22T13:02:04.569Z,41.10
2018-03-22T13:12:22.386Z,42.70
2018-03-22T13:22:42.980Z,43.40
2018-03-22T13:32:54.898Z,42.80
2018-03-22T13:43:07.571Z,42.80
2018-03-22T13:53:22.052Z,43.40
2018-03-22T14:03:32.841Z,44.20
2018-03-22T14:13:43.752Z,44.20
2018-03-22T14:23:54.861Z,44.70
2018-03-22T14:34:07.191Z,44.70
2018-03-22T14:44:21.100Z,45.30
2018-03-22T14:54:40.510Z,45.10
2018-03-22T15:04:50.971Z,44.90
2018-03-22T15:15:01.972Z,43.20
2018-03-22T15:25:11.827Z,41.90
2018-03-22T15:35:23.475Z,42.00
2018-03-22T15:45:38.301Z,42.00
2018-03-22T15:55:53.823Z,41.10
2018-03-22T16:06:04.826Z,41.10
2018-03-22T16:16:13.875Z,40.30
2018-03-22T16:26:21.912Z,40.70
2018-03-22T16:36:35.364Z,39.60
2018-03-22T16:46:46.512Z,39.50
2018-03-22T16:56:55.580Z,40.00
2018-03-22T17:17:24.430Z,40.10
2018-03-22T17:27:36.066Z,39.80
2018-03-22T17:37:45.675Z,39.80
2018-03-22T17:47:54.436Z,39.70
2018-03-22T17:58:04.347Z,39.60
2018-03-22T18:08:18.376Z,39.40
2018-03-22T18:18:34.734Z,39.40
2018-03-22T18:28:47.010Z,39.30
2018-03-22T18:38:55.473Z,38.60
2018-03-22T18:49:05.668Z,38.10
2018-03-22T18:59:14.208Z,38.20
2018-03-22T19:09:22.990Z,38.00
2018-03-22T19:19:36.279Z,37.20
2018-03-22T19:29:47.006Z,37.00
2018-03-22T19:39:55.883Z,36.80
2018-03-22T19:50:04.860Z,36.20
2018-03-22T20:00:13.500Z,36.10
2018-03-22T20:10:22.591Z,36.10
2018-03-22T20:20:45.949Z,35.80
2018-03-22T20:31:00.227Z,35.90
2018-03-22T20:41:11.095Z,35.80
2018-03-22T20:51:22.582Z,35.80
2018-03-22T21:01:36.060Z,35.80
2018-03-22T21:11:44.749Z,35.10
2018-03-22T21:21:52.358Z,35.10
2018-03-22T21:42:25.491Z,34.30
2018-03-22T21:52:50.302Z,34.80
2018-03-22T22:03:07.909Z,33.20
2018-03-22T22:13:19.526Z,33.20
2018-03-22T22:23:30.136Z,33.00
2018-03-22T22:33:41.152Z,32.50
2018-03-22T22:43:50.169Z,32.50
2018-03-22T22:54:00.678Z,32.40
2018-03-22T23:04:10.326Z,32.40
2018-03-22T23:14:19.924Z,32.20
2018-03-22T23:24:28.508Z,32.10
2018-03-22T23:34:40.560Z,32.10
2018-03-22T23:44:50.045Z,31.50
2018-03-22T23:54:59.177Z,31.50
